Time;durP1;ratioP1;P1;durP2;ratioP2;P2;SDS_P1;SDS_P2;PMS_P1;PMS_P2;Temp;Humidity;BMP_temperature;BMP_pressure;BME280_temperature;BME280_humidity;BME280_pressure;Samples;Min_cycle;Max_cycle;Signal;HPM_P1;HPM_P2
2021/04/15 00:03:53;;;;;;;6.62;3.65;;;;;;;9.90;76.29;99398.92;4303447;82;28623;-84
2021/04/15 00:09:55;;;;;;;5.37;3.67;;;;;;;11.01;68.77;99391.59;4304756;81;28589;-83
2021/04/15 00:15:59;;;;;;;4.75;2.87;;;;;;;11.06;66.98;99389.56;4315220;82;28626;-83
2021/04/15 00:22:02;;;;;;;5.67;3.17;;;;;;;10.51;71.69;99393.06;4325288;82;29064;-84
2021/04/15 00:28:05;;;;;;;4.20;2.62;;;;;;;10.93;67.96;99381.13;4317872;82;28570;-82
2021/04/15 00:34:07;;;;;;;4.15;2.30;;;;;;;10.79;69.14;99380.48;4294203;81;28582;-82
2021/04/15 00:40:12;;;;;;;4.97;2.65;;;;;;;11.05;67.74;99372.33;4321807;81;28653;-83
2021/04/15 00:46:57;;;;;;;4.22;2.65;;;;;;;10.86;67.32;99371.80;4279409;81;28550;-83
2021/04/15 00:53:05;;;;;;;6.60;3.85;;;;;;;10.80;68.55;99368.67;4329117;81;28589;-82
2021/04/15 00:59:08;;;;;;;5.30;3.17;;;;;;;9.52;79.75;99371.59;4286846;83;28599;-84
2021/04/15 01:05:24;;;;;;;5.20;3.30;;;;;;;11.44;65.98;99356.16;4259006;83;28586;-83
2021/04/15 01:12:01;;;;;;;6.40;3.87;;;;;;;11.39;66.24;99352.52;4304006;83;28588;-81
2021/04/15 01:18:23;;;;;;;5.05;3.47;;;;;;;11.05;68.78;99354.30;4344218;81;28570;-81
2021/04/15 01:24:49;;;;;;;5.25;3.72;;;;;;;11.07;67.92;99361.61;4344599;81;28567;-81
2021/04/15 01:31:15;;;;;;;5.60;3.58;;;;;;;11.26;66.66;99348.96;4363519;81;28578;-83
2021/04/15 01:37:22;;;;;;;6.45;4.08;;;;;;;10.60;71.15;99350.05;4353984;81;28587;-82
2021/04/15 01:43:50;;;;;;;6.50;3.95;;;;;;;10.66;70.50;99351.03;4301723;81;28582;-81
2021/04/15 01:50:03;;;;;;;5.58;3.90;;;;;;;10.97;67.71;99346.02;4265169;83;28616;-82
2021/04/15 01:56:34;;;;;;;8.45;4.47;;;;;;;11.00;68.23;99339.38;4267141;83;28621;-81
2021/04/15 02:02:44;;;;;;;6.87;4.10;;;;;;;11.24;65.52;99338.13;4294247;83;28648;-81
2021/04/15 02:08:51;;;;;;;5.33;3.35;;;;;;;11.05;66.65;99329.28;4281924;81;28650;-82
2021/04/15 02:15:04;;;;;;;6.50;3.90;;;;;;;10.91;68.04;99327.27;4286824;81;28611;-82
2021/04/15 02:21:29;;;;;;;5.40;4.17;;;;;;;10.87;68.49;99329.05;4262358;82;28580;-81
2021/04/15 02:27:45;;;;;;;4.42;3.20;;;;;;;10.66;70.63;99330.86;4292933;82;28633;-82
2021/04/15 02:33:54;;;;;;;;;;;;;;;10.29;72.51;99327.59;4304342;82;28610;-82
2021/04/15 02:40:01;;;;;;;6.25;3.70;;;;;;;10.28;73.68;99325.45;4259566;81;20240;-82
2021/04/15 02:46:09;;;;;;;7.47;4.58;;;;;;;10.78;68.53;99322.36;4277824;83;28664;-82
2021/04/15 02:52:19;;;;;;;7.50;4.35;;;;;;;10.81;68.74;99319.72;4264270;82;28611;-83
2021/04/15 02:58:27;;;;;;;5.08;3.52;;;;;;;10.91;67.80;99309.79;4268247;82;28576;-84
2021/04/15 03:04:31;;;;;;;7.00;4.35;;;;;;;10.32;71.89;99310.51;4261230;83;28610;-82
2021/04/15 03:10:38;;;;;;;6.53;4.50;;;;;;;10.71;69.32;99304.94;4208798;83;28612;-80
2021/04/15 03:16:45;;;;;;;7.42;4.50;;;;;;;10.46;71.30;99305.84;4235490;84;28585;-82
2021/04/15 03:23:16;;;;;;;7.05;4.50;;;;;;;10.29;72.66;99315.00;4220915;83;28628;-82
2021/04/15 03:29:29;;;;;;;6.00;4.50;;;;;;;10.43;71.72;99313.53;4234852;84;28600;-80
2021/04/15 03:35:41;;;;;;;8.45;5.47;;;;;;;10.65;69.62;99312.58;4291503;81;28574;-80
2021/04/15 03:41:48;;;;;;;7.20;4.53;;;;;;;10.49;70.63;99308.63;4255035;82;28613;-81
2021/04/15 03:47:59;;;;;;;7.58;4.72;;;;;;;10.43;72.04;99313.02;4262286;83;28681;-81
2021/04/15 03:54:09;;;;;;;6.85;4.40;;;;;;;10.67;69.71;99306.45;4278342;82;28651;-80
2021/04/15 04:00:16;;;;;;;8.25;4.33;;;;;;;10.39;71.63;99314.47;4264166;83;28614;-81
2021/04/15 04:06:21;;;;;;;7.25;4.75;;;;;;;10.43;71.24;99304.96;4236739;82;28568;-81
2021/04/15 04:12:41;;;;;;;8.75;5.47;;;;;;;10.31;72.66;99304.03;4263546;82;28646;-82
2021/04/15 04:19:04;;;;;;;9.45;5.37;;;;;;;10.44;71.82;99311.98;4268002;82;28590;-81
2021/04/15 04:25:17;;;;;;;7.97;5.37;;;;;;;10.35;72.46;99309.25;4264487;82;28694;-82
2021/04/15 04:31:29;;;;;;;8.00;5.40;;;;;;;10.34;73.18;99310.30;4249884;82;28572;-82
2021/04/15 04:37:39;;;;;;;7.30;5.45;;;;;;;10.01;75.50;99320.85;4251414;82;28614;-81
2021/04/15 04:43:48;;;;;;;8.83;6.20;;;;;;;10.43;72.25;99318.91;4270213;82;28638;-81
2021/04/15 04:50:26;;;;;;;7.92;6.12;;;;;;;10.24;74.30;99318.86;4253784;82;28715;-82
2021/04/15 04:56:33;;;;;;;7.75;5.55;;;;;;;10.27;73.52;99322.97;4266438;83;28652;-82
2021/04/15 05:02:35;;;;;;;8.78;6.12;;;;;;;10.07;74.71;99326.67;4262650;82;28625;-83
2021/04/15 05:09:01;;;;;;;9.50;5.75;;;;;;;10.22;73.62;99324.98;4248716;83;28730;-84
2021/04/15 05:15:05;;;;;;;7.65;4.72;;;;;;;10.31;73.52;99322.31;4275800;81;28644;-84
2021/04/15 05:21:18;;;;;;;8.48;5.55;;;;;;;10.23;72.74;99325.28;4261963;83;28594;-84
2021/04/15 05:27:22;;;;;;;9.55;6.22;;;;;;;10.21;72.72;99326.56;4279288;83;28640;-83
2021/04/15 05:33:26;;;;;;;10.48;6.20;;;;;;;10.56;71.48;99322.79;4291335;81;28673;-83
2021/04/15 05:39:33;;;;;;;;;;;;;;;10.12;74.15;99326.01;4312006;81;28578;-84
2021/04/15 05:45:38;;;;;;;8.28;5.42;;;;;;;10.48;71.03;99323.11;4292534;82;20191;-85
2021/04/15 05:51:46;;;;;;;7.33;5.00;;;;;;;10.22;72.84;99322.83;4295188;82;28646;-84
2021/04/15 05:57:53;;;;;;;8.15;5.53;;;;;;;9.97;74.16;99323.16;4284274;82;28567;-85
2021/04/15 06:04:00;;;;;;;8.40;5.95;;;;;;;9.80;76.70;99326.08;4276668;82;28666;-84
2021/04/15 06:10:04;;;;;;;11.60;6.33;;;;;;;10.69;70.30;99312.95;4253812;82;28955;-85
2021/04/15 06:16:21;;;;;;;8.15;5.40;;;;;;;10.62;70.21;99314.89;4284161;82;28620;-84
2021/04/15 06:22:27;;;;;;;10.18;6.72;;;;;;;10.52;70.91;99302.79;4295165;82;28597;-85
2021/04/15 06:28:34;;;;;;;10.45;5.95;;;;;;;10.56;70.50;99309.34;4282046;82;28613;-84
2021/04/15 06:34:37;;;;;;;7.72;5.25;;;;;;;10.47;70.25;99316.09;4320211;82;28605;-84
2021/04/15 06:41:22;;;;;;;12.98;7.05;;;;;;;10.21;72.02;99317.16;4287025;82;28593;-85
2021/04/15 06:47:47;;;;;;;10.63;6.42;;;;;;;10.98;68.37;99310.50;4273615;82;28623;-85
2021/04/15 06:54:18;;;;;;;10.40;6.78;;;;;;;11.47;64.43;99305.08;4317537;81;28557;-82
2021/04/15 07:00:57;;;;;;;10.82;7.35;;;;;;;10.83;67.70;99303.66;4308078;81;28625;-83
2021/04/15 07:07:09;;;;;;;11.35;7.33;;;;;;;10.53;71.51;99300.39;4295037;82;28586;-84
2021/04/15 07:13:49;;;;;;;11.20;6.72;;;;;;;11.14;67.33;99310.39;4288750;81;28602;-83
2021/04/15 07:20:22;;;;;;;13.85;7.85;;;;;;;10.54;70.88;99305.27;4350763;80;28636;-84
2021/04/15 07:26:56;;;;;;;13.28;7.87;;;;;;;11.27;67.10;99306.70;4359521;80;28642;-85
2021/04/15 07:33:33;;;;;;;11.30;7.45;;;;;;;11.70;64.70;99311.02;4295390;82;28639;-84
2021/04/15 07:40:05;;;;;;;13.50;7.75;;;;;;;11.78;64.84;99312.58;4283594;81;28607;-83
2021/04/15 07:46:28;;;;;;;11.55;7.28;;;;;;;12.12;62.87;99312.85;4341998;80;28654;-85
2021/04/15 07:53:08;;;;;;;10.75;6.80;;;;;;;12.11;63.46;99313.08;4220320;82;28600;-83
2021/04/15 07:59:46;;;;;;;9.43;6.75;;;;;;;11.79;64.21;99312.03;4216515;82;28666;-83
2021/04/15 08:06:37;;;;;;;12.13;6.90;;;;;;;11.99;62.39;99317.91;4240937;81;28574;-84
2021/04/15 08:13:20;;;;;;;12.65;7.47;;;;;;;12.08;63.87;99312.20;4286914;81;28643;-82
2021/04/15 08:20:03;;;;;;;9.80;6.58;;;;;;;12.11;63.72;99321.16;4201353;82;28625;-84
2021/04/15 08:26:33;;;;;;;9.20;6.45;;;;;;;12.04;64.61;99323.17;4251275;83;28559;-83
2021/04/15 08:33:10;;;;;;;8.23;5.42;;;;;;;12.51;63.17;99318.28;4227617;84;28631;-83
2021/04/15 08:39:37;;;;;;;7.22;5.30;;;;;;;11.67;64.05;99314.19;4413608;79;70801;-84
2021/04/15 08:46:01;;;;;;;5.80;3.90;;;;;;;11.46;65.99;99319.59;4312287;80;28647;-82
2021/04/15 08:52:27;;;;;;;6.47;4.72;;;;;;;11.79;65.23;99318.25;4356394;80;28565;-79
2021/04/15 08:59:11;;;;;;;7.97;4.92;;;;;;;11.73;62.28;99321.06;4345743;81;28590;-81
2021/04/15 09:06:04;;;;;;;6.42;4.72;;;;;;;11.57;66.26;99318.80;4615451;76;68551;-81
2021/04/15 09:12:30;;;;;;;5.70;3.42;;;;;;;11.65;64.46;99319.50;4462299;80;28610;-81
2021/04/15 09:18:43;;;;;;;8.00;4.55;;;;;;;11.52;63.71;99315.97;4463023;80;28650;-80
2021/04/15 09:25:12;;;;;;;6.55;4.15;;;;;;;12.47;61.34;99309.84;4461695;80;28613;-82
2021/04/15 09:31:49;;;;;;;7.28;4.30;;;;;;;11.89;65.00;99319.55;4461444;80;28566;-82
2021/04/15 09:38:02;;;;;;;5.53;3.87;;;;;;;12.40;59.43;99310.48;4479474;79;28622;-82
2021/04/15 09:44:13;;;;;;;7.60;4.70;;;;;;;11.86;74.65;99317.59;4513345;78;28594;-80
2021/04/15 09:50:26;;;;;;;6.08;4.33;;;;;;;12.80;63.80;99310.22;4514805;79;28569;-81
2021/04/15 09:56:55;;;;;;;7.35;4.50;;;;;;;12.79;61.66;99312.63;4389594;80;28600;-80
2021/04/15 10:03:17;;;;;;;7.78;4.70;;;;;;;11.99;64.79;99308.48;4428409;79;75436;-82
2021/04/15 10:09:44;;;;;;;6.28;3.90;;;;;;;12.45;63.73;99312.48;4308649;81;28585;-81
2021/04/15 10:15:55;;;;;;;7.00;4.62;;;;;;;12.20;64.86;99320.30;4358708;81;28594;-81
2021/04/15 10:22:29;;;;;;;6.87;4.40;;;;;;;12.35;63.17;99311.20;4290368;83;28622;-81
2021/04/15 10:29:04;;;;;;;6.15;4.00;;;;;;;12.41;61.13;99308.08;4216765;84;28579;-79
2021/04/15 10:35:42;;;;;;;5.92;4.47;;;;;;;11.88;63.89;99311.98;4267984;83;28628;-81
2021/04/15 10:42:19;;;;;;;7.05;4.65;;;;;;;11.92;67.04;99305.61;4246221;83;28612;-80
2021/04/15 10:55:27;;;;;;;6.75;4.00;;;;;;;12.09;64.10;99301.20;4459972;79;75609;-81
2021/04/15 11:01:37;;;;;;;7.67;5.22;;;;;;;12.39;60.79;99304.80;4412242;78;28572;-80
2021/04/15 11:07:42;;;;;;;7.78;5.00;;;;;;;11.57;67.77;99305.85;4419920;80;28636;-80
2021/04/15 11:13:45;;;;;;;6.53;4.67;;;;;;;12.16;64.90;99309.17;4395849;80;28623;-81
2021/04/15 11:19:49;;;;;;;7.78;5.00;;;;;;;12.21;62.67;99305.22;4248710;83;28641;-79
2021/04/15 11:25:53;;;;;;;6.80;5.00;;;;;;;12.22;65.34;99305.52;4222769;83;28600;-79
2021/04/15 11:31:57;;;;;;;8.70;5.92;;;;;;;11.25;68.42;99311.50;4331132;82;28586;-80
2021/04/15 11:38:08;;;;;;;8.95;5.58;;;;;;;10.65;75.42;99316.61;4334307;80;28650;-84
2021/04/15 11:44:33;;;;;;;8.55;6.37;;;;;;;12.80;63.10;99298.91;4315085;80;270979;-83
2021/04/15 11:50:35;;;;;;;10.00;5.97;;;;;;;12.52;62.15;99305.89;4391791;78;28666;-83
2021/04/15 11:56:39;;;;;;;7.85;5.42;;;;;;;12.43;66.72;99302.46;4348048;79;28595;-82
2021/04/15 12:02:59;;;;;;;7.85;4.95;;;;;;;13.16;64.31;99302.83;4391157;80;28599;-81
2021/04/15 12:09:02;;;;;;;6.65;4.58;;;;;;;12.10;69.29;99306.88;4471213;79;28610;-82
2021/04/15 12:15:11;;;;;;;7.03;5.22;;;;;;;12.84;64.54;99307.35;4425656;78;28583;-79
2021/04/15 12:21:37;;;;;;;9.05;5.20;;;;;;;11.85;68.69;99308.42;4371288;80;28610;-79
2021/04/15 12:27:41;;;;;;;7.72;5.25;;;;;;;11.71;69.72;99301.08;4456457;79;28629;-80
2021/04/15 12:34:16;;;;;;;6.45;4.20;;;;;;;12.51;65.29;99304.25;4374788;80;28627;-80
2021/04/15 12:40:33;;;;;;;7.17;4.53;;;;;;;11.90;68.17;99295.60;4330366;80;28647;-81
2021/04/15 12:46:37;;;;;;;7.95;4.53;;;;;;;12.19;66.14;99297.10;4235575;83;28878;-81
2021/04/15 12:52:41;;;;;;;8.48;4.87;;;;;;;11.80;70.24;99298.34;4256854;84;28580;-80
2021/04/15 12:58:45;;;;;;;5.85;3.67;;;;;;;11.87;66.28;99291.48;4260208;83;28577;-79
2021/04/15 13:04:54;;;;;;;6.37;4.17;;;;;;;11.53;67.67;99304.69;4263284;83;28967;-79
2021/04/15 13:10:56;;;;;;;6.72;4.20;;;;;;;11.85;69.93;99297.64;4263445;82;28579;-79
2021/04/15 13:17:00;;;;;;;7.65;4.67;;;;;;;12.46;63.39;99299.28;4337984;81;28664;-81
2021/04/15 13:23:13;;;;;;;8.05;4.65;;;;;;;11.83;66.00;99290.33;4311765;81;28603;-80
2021/04/15 13:29:20;;;;;;;6.95;4.58;;;;;;;11.55;70.60;99293.95;4309189;81;28582;-80
2021/04/15 13:35:36;;;;;;;9.43;4.72;;;;;;;11.86;69.00;99289.85;4318445;81;28700;-79
2021/04/15 13:41:47;;;;;;;7.35;4.22;;;;;;;12.31;66.46;99293.03;4313554;81;28572;-77
2021/04/15 13:47:55;;;;;;;6.80;4.40;;;;;;;12.30;66.79;99288.19;4294247;81;28651;-79
2021/04/15 13:54:27;;;;;;;6.95;4.65;;;;;;;12.41;68.72;99283.81;4316882;82;28629;-80
2021/04/15 14:00:43;;;;;;;6.80;4.42;;;;;;;12.81;63.32;99287.06;4356974;81;28615;-79
2021/04/15 14:06:46;;;;;;;5.92;3.85;;;;;;;12.83;63.93;99284.94;4320245;82;28705;-79
2021/04/15 14:13:02;;;;;;;7.35;4.37;;;;;;;11.71;67.06;99296.53;4335060;81;28649;-79
2021/04/15 14:19:10;;;;;;;7.72;4.70;;;;;;;12.69;64.39;99294.38;4255990;82;28685;-78
2021/04/15 14:25:27;;;;;;;6.83;4.30;;;;;;;12.58;66.56;99285.23;4253529;82;28586;-78
2021/04/15 14:31:30;;;;;;;7.95;4.30;;;;;;;12.36;65.90;99292.61;4240767;82;28660;-78
2021/04/15 14:37:33;;;;;;;6.83;4.65;;;;;;;13.04;62.67;99289.92;4237785;82;28642;-79
2021/04/15 14:43:43;;;;;;;7.10;4.37;;;;;;;13.19;61.64;99292.89;4333069;81;28633;-78
2021/04/15 14:50:03;;;;;;;8.43;4.90;;;;;;;12.21;66.75;99293.09;4320826;81;28632;-79
2021/04/15 14:56:20;;;;;;;7.50;4.10;;;;;;;12.91;62.78;99282.41;4328044;81;28597;-79
2021/04/15 15:02:26;;;;;;;6.45;4.12;;;;;;;12.73;64.22;99283.38;4322389;81;28575;-80
2021/04/15 15:08:43;;;;;;;7.33;4.60;;;;;;;12.26;67.06;99287.00;4248658;82;28577;-81
2021/04/15 15:14:48;;;;;;;6.87;4.22;;;;;;;12.73;64.35;99290.13;4250434;82;28605;-81
2021/04/15 15:20:54;;;;;;;7.45;4.67;;;;;;;12.10;67.33;99292.06;4323543;81;28715;-79
2021/04/15 15:27:16;;;;;;;;;;;;;;;12.05;68.96;99286.54;4321397;81;28690;-81
2021/04/15 15:33:31;;;;;;;8.25;4.58;;;;;;;12.02;68.28;99279.41;4329566;81;20314;-80
2021/04/15 15:39:38;;;;;;;7.22;3.58;;;;;;;11.82;69.05;99288.14;4319484;82;28629;-80
2021/04/15 15:45:47;;;;;;;7.20;4.80;;;;;;;11.96;67.22;99283.87;4276787;83;28668;-79
2021/04/15 15:52:14;;;;;;;6.12;4.50;;;;;;;11.71;67.89;99279.02;4296207;81;28599;-81
2021/04/15 15:58:25;;;;;;;8.48;5.20;;;;;;;12.04;69.56;99275.47;4209232;83;28694;-80
2021/04/15 16:04:33;;;;;;;7.40;4.75;;;;;;;11.62;71.17;99276.88;4217154;83;28552;-80
2021/04/15 16:10:43;;;;;;;9.25;5.47;;;;;;;11.75;71.44;99278.55;4226956;83;28691;-80
2021/04/15 16:16:49;;;;;;;6.92;4.33;;;;;;;12.08;70.62;99283.91;4301600;81;28671;-80
2021/04/15 16:22:52;;;;;;;7.10;4.35;;;;;;;12.44;67.51;99276.59;4306974;81;28552;-80
2021/04/15 16:28:54;;;;;;;8.65;4.92;;;;;;;11.86;68.95;99275.03;4294920;81;28644;-80
2021/04/15 16:34:56;;;;;;;7.17;4.40;;;;;;;11.63;69.82;99276.66;4274158;81;28568;-80
2021/04/15 16:40:59;;;;;;;7.87;4.87;;;;;;;11.86;67.99;99272.34;4316994;81;28689;-81
2021/04/15 16:47:02;;;;;;;8.43;4.62;;;;;;;11.86;70.45;99278.53;4307863;81;28574;-81
2021/04/15 16:53:06;;;;;;;6.87;4.72;;;;;;;11.62;70.77;99278.23;4314094;81;28680;-80
2021/04/15 16:59:08;;;;;;;7.67;5.00;;;;;;;11.38;72.12;99280.89;4313473;81;28578;-80
2021/04/15 17:05:12;;;;;;;7.37;5.00;;;;;;;11.68;70.70;99269.23;4310285;81;28575;-80
2021/04/15 17:11:15;;;;;;;8.88;5.95;;;;;;;11.28;73.94;99282.26;4295259;81;28643;-81
2021/04/15 17:17:18;;;;;;;8.58;5.33;;;;;;;11.54;72.13;99280.20;4313593;81;28570;-82
2021/04/15 17:23:25;;;;;;;7.80;5.40;;;;;;;11.24;74.57;99283.75;4236851;82;34064;-83
2021/04/15 17:29:27;;;;;;;8.50;5.33;;;;;;;11.44;73.11;99292.06;4281911;82;28574;-82
2021/04/15 17:35:30;;;;;;;9.05;5.95;;;;;;;10.96;77.01;99290.58;4256274;82;28687;-86
2021/04/15 17:41:34;;;;;;;10.60;6.97;;;;;;;10.88;77.66;99301.13;4303360;81;28641;-79
2021/04/15 17:47:36;;;;;;;9.40;6.15;;;;;;;10.68;78.15;99309.97;4219729;82;28614;-80
2021/04/15 17:53:42;;;;;;;11.15;7.00;;;;;;;11.56;72.35;99309.59;4232559;83;28590;-81
2021/04/15 17:59:44;;;;;;;10.28;6.80;;;;;;;11.44;72.48;99309.05;4252921;82;28595;-82
2021/04/15 18:05:48;;;;;;;11.00;6.45;;;;;;;11.33;71.84;99312.53;4216039;82;28610;-81
2021/04/15 18:11:51;;;;;;;11.43;7.03;;;;;;;10.88;75.66;99313.23;4260981;81;28660;-80
2021/04/15 18:17:53;;;;;;;13.62;7.55;;;;;;;10.82;76.85;99328.09;4235820;82;28608;-78
2021/04/15 18:23:56;;;;;;;12.28;7.72;;;;;;;11.35;72.72;99326.58;4239079;82;28638;-78
2021/04/15 18:29:59;;;;;;;14.25;8.35;;;;;;;11.53;72.50;99333.76;4228852;82;28600;-75
2021/04/15 18:36:01;;;;;;;14.60;8.00;;;;;;;10.80;76.83;99335.56;4250412;82;28595;-75
2021/04/15 18:42:04;;;;;;;15.28;8.60;;;;;;;11.32;73.94;99338.32;4249557;80;28580;-77
2021/04/15 18:48:09;;;;;;;15.53;8.98;;;;;;;10.90;77.38;99333.70;4251442;82;28643;-82
2021/04/15 18:54:11;;;;;;;16.32;9.43;;;;;;;11.08;76.27;99334.20;4229627;84;28585;-78
2021/04/15 19:00:22;;;;;;;17.27;9.70;;;;;;;10.58;80.03;99327.95;4182887;84;28612;-77
2021/04/15 19:06:27;;;;;;;18.37;11.03;;;;;;;10.77;79.79;99319.89;4182193;84;28590;-77
2021/04/15 19:12:29;;;;;;;18.52;9.43;;;;;;;11.30;74.34;99321.88;4311683;82;28613;-75
2021/04/15 19:18:37;;;;;;;14.03;9.18;;;;;;;10.75;78.51;99317.41;4262668;83;28658;-75
2021/04/15 19:24:40;;;;;;;17.85;10.00;;;;;;;10.95;77.46;99302.90;4245684;84;28622;-77
2021/04/15 19:30:42;;;;;;;16.42;9.73;;;;;;;11.39;73.94;99314.83;4249629;82;28604;-78
2021/04/15 19:36:45;;;;;;;18.65;10.28;;;;;;;11.26;74.75;99309.10;4238448;84;28639;-77
2021/04/15 19:42:47;;;;;;;17.30;10.20;;;;;;;11.03;76.09;99316.04;4263594;83;28617;-77
2021/04/15 19:48:50;;;;;;;17.40;10.15;;;;;;;11.38;73.73;99314.53;4299587;82;28587;-76
2021/04/15 19:54:54;;;;;;;17.40;9.90;;;;;;;10.69;79.33;99317.79;4238836;82;28745;-76
2021/04/15 20:00:57;;;;;;;20.95;11.18;;;;;;;10.55;79.87;99313.09;4263925;82;28624;-76
2021/04/15 20:07:01;;;;;;;17.52;10.98;;;;;;;10.32;82.73;99310.51;4227761;83;28576;-75
2021/04/15 20:13:12;;;;;;;20.75;12.33;;;;;;;10.65;79.93;99303.16;4295605;83;28638;-75
2021/04/15 20:19:14;;;;;;;22.82;12.55;;;;;;;10.79;78.06;99294.92;4274678;81;28659;-76
2021/04/15 20:25:19;;;;;;;21.23;12.63;;;;;;;10.38;82.24;99295.36;4274980;83;28603;-76
2021/04/15 20:31:21;;;;;;;25.30;14.10;;;;;;;10.81;78.68;99287.45;4241884;82;28663;-76
2021/04/15 20:37:24;;;;;;;25.45;13.60;;;;;;;10.51;81.23;99289.56;4277854;82;28593;-75
2021/04/15 20:43:27;;;;;;;27.60;15.25;;;;;;;10.90;76.15;99293.36;4285473;81;28679;-75
2021/04/15 20:49:30;;;;;;;26.90;15.95;;;;;;;11.05;76.13;99291.06;4327849;82;29631;-76
2021/04/15 20:55:36;;;;;;;25.30;15.10;;;;;;;10.73;79.03;99300.69;4324861;81;28598;-76
2021/04/15 21:01:38;;;;;;;31.00;16.57;;;;;;;11.05;77.24;99285.69;4328770;81;28584;-76
2021/04/15 21:07:41;;;;;;;28.90;15.28;;;;;;;10.97;76.57;99290.03;4311773;81;28647;-76
2021/04/15 21:13:44;;;;;;;25.85;14.33;;;;;;;10.80;78.55;99287.16;4328922;82;28572;-77
2021/04/15 21:19:46;;;;;;;32.42;15.93;;;;;;;10.78;79.07;99283.87;4329436;81;28615;-77
2021/04/15 21:25:49;;;;;;;26.65;14.80;;;;;;;10.31;83.51;99283.87;4329329;82;28665;-76
2021/04/15 21:31:52;;;;;;;33.73;18.25;;;;;;;10.75;80.12;99269.00;4329048;82;28623;-76
2021/04/15 21:37:55;;;;;;;30.97;16.60;;;;;;;10.94;78.09;99269.81;4329158;81;28615;-76
2021/04/15 21:44:00;;;;;;;31.70;17.15;;;;;;;11.12;76.18;99276.17;4328024;81;28651;-75
2021/04/15 21:50:01;;;;;;;30.62;15.55;;;;;;;10.97;77.17;99276.58;4329508;82;28645;-76
2021/04/15 21:56:04;;;;;;;31.60;17.52;;;;;;;10.94;77.51;99266.28;4336310;81;28608;-76
2021/04/15 22:02:06;;;;;;;34.03;18.23;;;;;;;11.31;75.26;99270.22;4318044;82;28606;-75
2021/04/15 22:08:14;;;;;;;33.73;18.25;;;;;;;11.30;75.27;99269.39;4272915;82;28620;-76
2021/04/15 22:14:20;;;;;;;34.88;17.65;;;;;;;11.33;74.82;99279.39;4319472;82;28636;-75
2021/04/15 22:20:26;;;;;;;;;;;;;;;11.30;76.04;99283.39;4328494;82;28565;-76
2021/04/15 22:26:28;;;;;;;35.27;18.30;;;;;;;11.42;75.29;99278.84;4240797;81;20194;-77
2021/04/15 22:32:30;;;;;;;34.20;17.82;;;;;;;10.84;79.60;99270.34;4326713;80;28586;-76
2021/04/15 22:38:33;;;;;;;34.15;18.32;;;;;;;10.79;81.12;99267.52;4329781;81;28574;-77
2021/04/15 22:44:35;;;;;;;36.98;18.73;;;;;;;11.42;75.28;99265.90;4330172;80;28622;-76
2021/04/15 22:50:45;;;;;;;33.95;17.80;;;;;;;10.85;80.57;99269.83;4242965;83;28959;-76
2021/04/15 22:56:47;;;;;;;36.58;17.92;;;;;;;10.79;81.06;99274.25;4318639;81;28687;-75
2021/04/15 23:02:51;;;;;;;32.75;17.35;;;;;;;11.14;78.14;99262.80;4364253;81;28583;-75
2021/04/15 23:08:56;;;;;;;31.60;16.57;;;;;;;10.63;83.84;99264.94;4315863;81;28608;-75
2021/04/15 23:14:58;;;;;;;32.77;17.27;;;;;;;10.72;82.55;99261.40;4313300;81;28578;-76
2021/04/15 23:21:03;;;;;;;24.60;14.00;;;;;;;10.76;82.42;99254.51;4293965;81;28603;-76
2021/04/15 23:27:06;;;;;;;25.08;13.80;;;;;;;10.51;84.08;99245.20;4318374;81;28653;-76
2021/04/15 23:33:09;;;;;;;26.75;14.63;;;;;;;10.57;84.51;99249.18;4353124;80;28598;-77
2021/04/15 23:39:11;;;;;;;21.60;11.97;;;;;;;10.73;81.62;99240.18;4308485;81;28584;-75
2021/04/15 23:45:14;;;;;;;21.42;12.47;;;;;;;10.55;83.15;99232.43;4313562;81;28613;-76
2021/04/15 23:51:16;;;;;;;19.50;11.45;;;;;;;10.72;81.60;99227.78;4328619;81;28599;-77
2021/04/15 23:57:18;;;;;;;20.05;11.28;;;;;;;10.45;84.31;99230.80;4328610;82;28971;-76
